sensor_id;sensor_type;location;lat;lon;timestamp;P1;durP1;ratioP1;P2;durP2;ratioP2
39140;SDS011;24875;48.436;10.298;2023-07-24T00:00:03;6.38;;;2.28;;
39140;SDS011;24875;48.436;10.298;2023-07-24T00:02:30;5.85;;;1.90;;
39140;SDS011;24875;48.436;10.298;2023-07-24T00:04:57;3.67;;;2.03;;
39140;SDS011;24875;48.436;10.298;2023-07-24T00:07:25;4.60;;;2.17;;
39140;SDS011;24875;48.436;10.298;2023-07-24T00:09:51;3.95;;;2.05;;
39140;SDS011;24875;48.436;10.298;2023-07-24T00:12:18;5.63;;;2.60;;
39140;SDS011;24875;48.436;10.298;2023-07-24T00:14:44;10.27;;;3.67;;
39140;SDS011;24875;48.436;10.298;2023-07-24T00:17:11;6.45;;;2.25;;
39140;SDS011;24875;48.436;10.298;2023-07-24T00:19:37;5.88;;;1.67;;
39140;SDS011;24875;48.436;10.298;2023-07-24T00:22:04;4.95;;;1.80;;
39140;SDS011;24875;48.436;10.298;2023-07-24T00:24:32;5.18;;;2.22;;
39140;SDS011;24875;48.436;10.298;2023-07-24T00:26:59;5.38;;;1.55;;
39140;SDS011;24875;48.436;10.298;2023-07-24T00:29:26;3.75;;;1.83;;
39140;SDS011;24875;48.436;10.298;2023-07-24T00:31:53;4.32;;;2.15;;
39140;SDS011;24875;48.436;10.298;2023-07-24T00:34:19;8.55;;;2.80;;
39140;SDS011;24875;48.436;10.298;2023-07-24T00:36:47;2.55;;;1.42;;
39140;SDS011;24875;48.436;10.298;2023-07-24T00:39:14;4.47;;;2.17;;
39140;SDS011;24875;48.436;10.298;2023-07-24T00:41:42;4.90;;;1.98;;
39140;SDS011;24875;48.436;10.298;2023-07-24T00:44:08;6.57;;;2.30;;
39140;SDS011;24875;48.436;10.298;2023-07-24T00:46:35;4.22;;;2.08;;
39140;SDS011;24875;48.436;10.298;2023-07-24T00:49:02;5.22;;;2.40;;
39140;SDS011;24875;48.436;10.298;2023-07-24T00:51:30;6.32;;;2.42;;
39140;SDS011;24875;48.436;10.298;2023-07-24T00:53:57;4.88;;;2.50;;
39140;SDS011;24875;48.436;10.298;2023-07-24T00:56:26;6.18;;;2.58;;
39140;SDS011;24875;48.436;10.298;2023-07-24T00:58:55;6.63;;;2.45;;
39140;SDS011;24875;48.436;10.298;2023-07-24T01:01:22;13.68;;;1.90;;
39140;SDS011;24875;48.436;10.298;2023-07-24T01:03:49;5.60;;;2.47;;
39140;SDS011;24875;48.436;10.298;2023-07-24T01:06:15;5.90;;;2.20;;
39140;SDS011;24875;48.436;10.298;2023-07-24T01:08:42;6.55;;;2.38;;
39140;SDS011;24875;48.436;10.298;2023-07-24T01:11:10;5.82;;;2.28;;
39140;SDS011;24875;48.436;10.298;2023-07-24T01:13:42;5.78;;;2.13;;
39140;SDS011;24875;48.436;10.298;2023-07-24T01:16:17;3.55;;;1.73;;
39140;SDS011;24875;48.436;10.298;2023-07-24T01:18:45;4.57;;;2.08;;
39140;SDS011;24875;48.436;10.298;2023-07-24T01:21:12;8.50;;;2.83;;
39140;SDS011;24875;48.436;10.298;2023-07-24T01:23:45;5.50;;;1.90;;
39140;SDS011;24875;48.436;10.298;2023-07-24T01:26:22;5.75;;;2.33;;
39140;SDS011;24875;48.436;10.298;2023-07-24T01:28:49;4.90;;;2.60;;
39140;SDS011;24875;48.436;10.298;2023-07-24T01:31:16;7.32;;;2.50;;
39140;SDS011;24875;48.436;10.298;2023-07-24T01:33:43;5.30;;;2.15;;
39140;SDS011;24875;48.436;10.298;2023-07-24T01:36:10;5.72;;;2.05;;
39140;SDS011;24875;48.436;10.298;2023-07-24T01:38:39;5.55;;;1.63;;
39140;SDS011;24875;48.436;10.298;2023-07-24T01:41:06;5.70;;;2.50;;
39140;SDS011;24875;48.436;10.298;2023-07-24T01:43:35;4.75;;;2.10;;
39140;SDS011;24875;48.436;10.298;2023-07-24T01:46:01;8.93;;;2.88;;
39140;SDS011;24875;48.436;10.298;2023-07-24T01:48:27;4.00;;;2.08;;
39140;SDS011;24875;48.436;10.298;2023-07-24T01:50:54;7.25;;;2.35;;
39140;SDS011;24875;48.436;10.298;2023-07-24T01:53:20;4.40;;;2.05;;
39140;SDS011;24875;48.436;10.298;2023-07-24T01:55:47;4.28;;;2.08;;
39140;SDS011;24875;48.436;10.298;2023-07-24T01:58:13;4.03;;;2.00;;
39140;SDS011;24875;48.436;10.298;2023-07-24T02:00:41;7.18;;;2.78;;
39140;SDS011;24875;48.436;10.298;2023-07-24T02:03:08;7.95;;;1.85;;
39140;SDS011;24875;48.436;10.298;2023-07-24T02:05:35;6.28;;;2.05;;
39140;SDS011;24875;48.436;10.298;2023-07-24T02:08:01;4.85;;;1.77;;
39140;SDS011;24875;48.436;10.298;2023-07-24T02:10:28;6.53;;;2.28;;
39140;SDS011;24875;48.436;10.298;2023-07-24T02:12:54;5.50;;;2.28;;
39140;SDS011;24875;48.436;10.298;2023-07-24T02:15:21;4.28;;;2.00;;
39140;SDS011;24875;48.436;10.298;2023-07-24T02:17:48;7.78;;;2.97;;
39140;SDS011;24875;48.436;10.298;2023-07-24T02:20:15;5.15;;;2.00;;
39140;SDS011;24875;48.436;10.298;2023-07-24T02:22:41;5.47;;;2.10;;
39140;SDS011;24875;48.436;10.298;2023-07-24T02:25:08;7.18;;;3.25;;
39140;SDS011;24875;48.436;10.298;2023-07-24T02:27:35;6.70;;;2.55;;
39140;SDS011;24875;48.436;10.298;2023-07-24T02:30:02;11.38;;;3.05;;
39140;SDS011;24875;48.436;10.298;2023-07-24T02:32:29;10.82;;;2.35;;
39140;SDS011;24875;48.436;10.298;2023-07-24T02:34:56;5.82;;;2.50;;
39140;SDS011;24875;48.436;10.298;2023-07-24T02:37:23;8.30;;;3.10;;
39140;SDS011;24875;48.436;10.298;2023-07-24T02:39:51;9.00;;;3.45;;
39140;SDS011;24875;48.436;10.298;2023-07-24T02:42:17;7.57;;;2.88;;
39140;SDS011;24875;48.436;10.298;2023-07-24T02:44:44;6.00;;;2.15;;
39140;SDS011;24875;48.436;10.298;2023-07-24T02:47:10;9.82;;;3.22;;
39140;SDS011;24875;48.436;10.298;2023-07-24T02:49:37;6.30;;;2.88;;
39140;SDS011;24875;48.436;10.298;2023-07-24T02:52:05;9.55;;;3.33;;
39140;SDS011;24875;48.436;10.298;2023-07-24T02:54:32;7.32;;;2.83;;
39140;SDS011;24875;48.436;10.298;2023-07-24T02:56:58;7.05;;;2.83;;
39140;SDS011;24875;48.436;10.298;2023-07-24T02:59:24;8.43;;;2.88;;
39140;SDS011;24875;48.436;10.298;2023-07-24T03:01:51;7.05;;;2.95;;
39140;SDS011;24875;48.436;10.298;2023-07-24T03:04:17;8.32;;;3.13;;
39140;SDS011;24875;48.436;10.298;2023-07-24T03:06:44;9.80;;;3.55;;
39140;SDS011;24875;48.436;10.298;2023-07-24T03:09:12;8.40;;;3.55;;
39140;SDS011;24875;48.436;10.298;2023-07-24T03:11:39;8.48;;;2.92;;
39140;SDS011;24875;48.436;10.298;2023-07-24T03:14:05;11.48;;;3.20;;
39140;SDS011;24875;48.436;10.298;2023-07-24T03:16:32;7.97;;;4.25;;
39140;SDS011;24875;48.436;10.298;2023-07-24T03:18:57;11.13;;;4.03;;
39140;SDS011;24875;48.436;10.298;2023-07-24T03:21:24;9.07;;;3.35;;
39140;SDS011;24875;48.436;10.298;2023-07-24T03:23:50;9.18;;;3.85;;
39140;SDS011;24875;48.436;10.298;2023-07-24T03:26:18;10.50;;;3.75;;
39140;SDS011;24875;48.436;10.298;2023-07-24T03:28:44;20.35;;;3.88;;
39140;SDS011;24875;48.436;10.298;2023-07-24T03:31:11;8.75;;;2.85;;
39140;SDS011;24875;48.436;10.298;2023-07-24T03:33:37;5.75;;;2.22;;
39140;SDS011;24875;48.436;10.298;2023-07-24T03:36:04;10.25;;;3.58;;
39140;SDS011;24875;48.436;10.298;2023-07-24T03:38:31;8.00;;;3.10;;
39140;SDS011;24875;48.436;10.298;2023-07-24T03:40:57;4.72;;;2.25;;
39140;SDS011;24875;48.436;10.298;2023-07-24T03:43:25;8.35;;;3.17;;
39140;SDS011;24875;48.436;10.298;2023-07-24T03:45:51;7.68;;;2.92;;
39140;SDS011;24875;48.436;10.298;2023-07-24T03:48:18;5.85;;;2.33;;
39140;SDS011;24875;48.436;10.298;2023-07-24T03:50:44;14.35;;;3.60;;
39140;SDS011;24875;48.436;10.298;2023-07-24T03:53:11;4.63;;;2.58;;
39140;SDS011;24875;48.436;10.298;2023-07-24T03:55:37;5.50;;;2.95;;
39140;SDS011;24875;48.436;10.298;2023-07-24T03:58:04;8.82;;;3.78;;
39140;SDS011;24875;48.436;10.298;2023-07-24T04:00:32;8.00;;;3.28;;
39140;SDS011;24875;48.436;10.298;2023-07-24T04:02:59;5.85;;;2.17;;
39140;SDS011;24875;48.436;10.298;2023-07-24T04:05:25;5.75;;;2.60;;
39140;SDS011;24875;48.436;10.298;2023-07-24T04:07:52;7.82;;;3.22;;
39140;SDS011;24875;48.436;10.298;2023-07-24T04:10:18;9.23;;;3.30;;
39140;SDS011;24875;48.436;10.298;2023-07-24T04:12:45;10.13;;;2.58;;
39140;SDS011;24875;48.436;10.298;2023-07-24T04:15:11;7.03;;;2.65;;
39140;SDS011;24875;48.436;10.298;2023-07-24T04:17:39;4.88;;;2.33;;
39140;SDS011;24875;48.436;10.298;2023-07-24T04:20:07;7.60;;;2.78;;
39140;SDS011;24875;48.436;10.298;2023-07-24T04:22:34;9.20;;;2.95;;
39140;SDS011;24875;48.436;10.298;2023-07-24T04:25:01;7.70;;;2.67;;
39140;SDS011;24875;48.436;10.298;2023-07-24T04:27:27;4.72;;;2.55;;
39140;SDS011;24875;48.436;10.298;2023-07-24T04:29:54;9.05;;;2.47;;
39140;SDS011;24875;48.436;10.298;2023-07-24T04:32:20;7.15;;;2.63;;
39140;SDS011;24875;48.436;10.298;2023-07-24T04:34:48;7.28;;;2.35;;
39140;SDS011;24875;48.436;10.298;2023-07-24T04:37:15;6.68;;;2.38;;
39140;SDS011;24875;48.436;10.298;2023-07-24T04:39:42;4.57;;;2.17;;
39140;SDS011;24875;48.436;10.298;2023-07-24T04:42:09;4.65;;;2.03;;
39140;SDS011;24875;48.436;10.298;2023-07-24T04:44:35;10.23;;;3.20;;
39140;SDS011;24875;48.436;10.298;2023-07-24T04:47:02;8.32;;;3.08;;
39140;SDS011;24875;48.436;10.298;2023-07-24T04:49:28;7.20;;;2.63;;
39140;SDS011;24875;48.436;10.298;2023-07-24T04:51:57;5.18;;;2.55;;
39140;SDS011;24875;48.436;10.298;2023-07-24T04:54:23;9.55;;;3.08;;
39140;SDS011;24875;48.436;10.298;2023-07-24T04:56:50;6.55;;;2.70;;
39140;SDS011;24875;48.436;10.298;2023-07-24T04:59:16;5.65;;;2.53;;
39140;SDS011;24875;48.436;10.298;2023-07-24T05:01:43;13.15;;;2.03;;
39140;SDS011;24875;48.436;10.298;2023-07-24T05:04:09;7.82;;;2.47;;
39140;SDS011;24875;48.436;10.298;2023-07-24T05:06:36;5.30;;;2.75;;
39140;SDS011;24875;48.436;10.298;2023-07-24T05:09:04;5.63;;;2.53;;
39140;SDS011;24875;48.436;10.298;2023-07-24T05:11:31;6.60;;;2.83;;
39140;SDS011;24875;48.436;10.298;2023-07-24T05:13:57;7.82;;;2.78;;
39140;SDS011;24875;48.436;10.298;2023-07-24T05:16:24;6.30;;;2.90;;
39140;SDS011;24875;48.436;10.298;2023-07-24T05:18:50;8.07;;;3.25;;
39140;SDS011;24875;48.436;10.298;2023-07-24T05:21:17;6.25;;;2.78;;
39140;SDS011;24875;48.436;10.298;2023-07-24T05:23:43;8.35;;;2.72;;
39140;SDS011;24875;48.436;10.298;2023-07-24T05:26:11;8.82;;;2.92;;
39140;SDS011;24875;48.436;10.298;2023-07-24T05:28:38;7.28;;;3.10;;
39140;SDS011;24875;48.436;10.298;2023-07-24T05:31:05;11.68;;;3.63;;
39140;SDS011;24875;48.436;10.298;2023-07-24T05:33:33;8.82;;;3.35;;
39140;SDS011;24875;48.436;10.298;2023-07-24T05:35:59;14.25;;;3.50;;
39140;SDS011;24875;48.436;10.298;2023-07-24T05:38:28;8.05;;;3.33;;
39140;SDS011;24875;48.436;10.298;2023-07-24T05:40:55;15.82;;;3.28;;
39140;SDS011;24875;48.436;10.298;2023-07-24T05:43:23;9.07;;;3.40;;
39140;SDS011;24875;48.436;10.298;2023-07-24T05:45:49;10.07;;;3.13;;
39140;SDS011;24875;48.436;10.298;2023-07-24T05:48:16;11.27;;;3.40;;
39140;SDS011;24875;48.436;10.298;2023-07-24T05:50:43;9.50;;;3.17;;
39140;SDS011;24875;48.436;10.298;2023-07-24T05:53:09;6.80;;;3.28;;
39140;SDS011;24875;48.436;10.298;2023-07-24T05:55:36;6.32;;;2.45;;
39140;SDS011;24875;48.436;10.298;2023-07-24T05:58:03;7.05;;;2.80;;
39140;SDS011;24875;48.436;10.298;2023-07-24T06:00:30;7.65;;;2.90;;
39140;SDS011;24875;48.436;10.298;2023-07-24T06:02:57;7.95;;;2.92;;
39140;SDS011;24875;48.436;10.298;2023-07-24T06:05:24;10.65;;;3.90;;
39140;SDS011;24875;48.436;10.298;2023-07-24T06:07:50;10.27;;;3.75;;
39140;SDS011;24875;48.436;10.298;2023-07-24T06:10:17;7.30;;;2.83;;
39140;SDS011;24875;48.436;10.298;2023-07-24T06:12:43;6.63;;;3.70;;
39140;SDS011;24875;48.436;10.298;2023-07-24T06:15:10;7.55;;;3.20;;
39140;SDS011;24875;48.436;10.298;2023-07-24T06:17:38;13.35;;;2.55;;
39140;SDS011;24875;48.436;10.298;2023-07-24T06:20:05;6.38;;;2.33;;
39140;SDS011;24875;48.436;10.298;2023-07-24T06:22:32;8.35;;;3.60;;
39140;SDS011;24875;48.436;10.298;2023-07-24T06:24:59;6.35;;;2.95;;
39140;SDS011;24875;48.436;10.298;2023-07-24T06:27:25;8.43;;;2.90;;
39140;SDS011;24875;48.436;10.298;2023-07-24T06:29:52;8.23;;;2.97;;
39140;SDS011;24875;48.436;10.298;2023-07-24T06:32:18;8.80;;;3.05;;
39140;SDS011;24875;48.436;10.298;2023-07-24T06:34:46;9.93;;;3.80;;
39140;SDS011;24875;48.436;10.298;2023-07-24T06:37:13;11.07;;;3.53;;
39140;SDS011;24875;48.436;10.298;2023-07-24T06:39:39;9.50;;;3.53;;
39140;SDS011;24875;48.436;10.298;2023-07-24T06:42:06;9.50;;;3.75;;
39140;SDS011;24875;48.436;10.298;2023-07-24T06:44:32;9.02;;;3.85;;
39140;SDS011;24875;48.436;10.298;2023-07-24T06:46:59;9.43;;;4.00;;
39140;SDS011;24875;48.436;10.298;2023-07-24T06:49:25;5.88;;;2.53;;
39140;SDS011;24875;48.436;10.298;2023-07-24T06:51:53;9.07;;;3.45;;
39140;SDS011;24875;48.436;10.298;2023-07-24T06:54:20;16.05;;;3.95;;
39140;SDS011;24875;48.436;10.298;2023-07-24T06:56:46;6.20;;;3.05;;
39140;SDS011;24875;48.436;10.298;2023-07-24T06:59:13;6.43;;;2.85;;
39140;SDS011;24875;48.436;10.298;2023-07-24T07:01:39;7.82;;;2.45;;
39140;SDS011;24875;48.436;10.298;2023-07-24T07:04:06;4.03;;;2.25;;
39140;SDS011;24875;48.436;10.298;2023-07-24T07:06:32;4.50;;;2.58;;
39140;SDS011;24875;48.436;10.298;2023-07-24T07:09:00;4.07;;;1.52;;
39140;SDS011;24875;48.436;10.298;2023-07-24T07:11:27;5.20;;;1.80;;
39140;SDS011;24875;48.436;10.298;2023-07-24T07:13:53;6.18;;;2.30;;
39140;SDS011;24875;48.436;10.298;2023-07-24T07:16:20;5.72;;;2.13;;
39140;SDS011;24875;48.436;10.298;2023-07-24T07:18:46;5.93;;;1.45;;
39140;SDS011;24875;48.436;10.298;2023-07-24T07:21:13;5.32;;;2.03;;
39140;SDS011;24875;48.436;10.298;2023-07-24T07:23:39;5.07;;;2.38;;
39140;SDS011;24875;48.436;10.298;2023-07-24T07:26:07;3.80;;;1.48;;
39140;SDS011;24875;48.436;10.298;2023-07-24T07:28:34;9.00;;;1.63;;
39140;SDS011;24875;48.436;10.298;2023-07-24T07:31:00;3.42;;;1.75;;
39140;SDS011;24875;48.436;10.298;2023-07-24T07:33:27;3.65;;;1.65;;
39140;SDS011;24875;48.436;10.298;2023-07-24T07:35:54;5.10;;;2.05;;
39140;SDS011;24875;48.436;10.298;2023-07-24T07:38:21;6.47;;;1.98;;
39140;SDS011;24875;48.436;10.298;2023-07-24T07:40:48;5.40;;;1.50;;
39140;SDS011;24875;48.436;10.298;2023-07-24T07:43:16;3.65;;;2.55;;
39140;SDS011;24875;48.436;10.298;2023-07-24T07:45:42;4.05;;;1.90;;
39140;SDS011;24875;48.436;10.298;2023-07-24T07:48:09;7.18;;;1.77;;
39140;SDS011;24875;48.436;10.298;2023-07-24T07:50:35;4.45;;;1.70;;
39140;SDS011;24875;48.436;10.298;2023-07-24T07:53:02;4.45;;;1.70;;
39140;SDS011;24875;48.436;10.298;2023-07-24T07:55:28;4.53;;;1.70;;
39140;SDS011;24875;48.436;10.298;2023-07-24T07:57:55;4.88;;;1.50;;
39140;SDS011;24875;48.436;10.298;2023-07-24T08:00:23;5.57;;;1.98;;
39140;SDS011;24875;48.436;10.298;2023-07-24T08:02:49;5.38;;;2.10;;
39140;SDS011;24875;48.436;10.298;2023-07-24T08:05:16;4.82;;;1.77;;
39140;SDS011;24875;48.436;10.298;2023-07-24T08:07:42;4.72;;;1.70;;
39140;SDS011;24875;48.436;10.298;2023-07-24T08:10:09;4.38;;;1.92;;
39140;SDS011;24875;48.436;10.298;2023-07-24T08:12:36;3.47;;;1.45;;
39140;SDS011;24875;48.436;10.298;2023-07-24T08:15:02;7.05;;;1.80;;
39140;SDS011;24875;48.436;10.298;2023-07-24T08:17:31;5.70;;;1.70;;
39140;SDS011;24875;48.436;10.298;2023-07-24T08:19:57;2.72;;;1.48;;
39140;SDS011;24875;48.436;10.298;2023-07-24T08:22:24;6.03;;;1.58;;
39140;SDS011;24875;48.436;10.298;2023-07-24T08:24:50;7.10;;;1.60;;
39140;SDS011;24875;48.436;10.298;2023-07-24T08:27:17;3.45;;;1.45;;
39140;SDS011;24875;48.436;10.298;2023-07-24T08:29:43;3.92;;;1.80;;
39140;SDS011;24875;48.436;10.298;2023-07-24T08:32:10;6.20;;;1.60;;
39140;SDS011;24875;48.436;10.298;2023-07-24T08:34:38;2.58;;;1.45;;
39140;SDS011;24875;48.436;10.298;2023-07-24T08:37:05;3.03;;;1.10;;
39140;SDS011;24875;48.436;10.298;2023-07-24T08:39:31;4.03;;;1.75;;
39140;SDS011;24875;48.436;10.298;2023-07-24T08:41:58;6.95;;;2.08;;
39140;SDS011;24875;48.436;10.298;2023-07-24T08:44:24;3.63;;;1.77;;
39140;SDS011;24875;48.436;10.298;2023-07-24T08:46:56;1.60;;;1.13;;
39140;SDS011;24875;48.436;10.298;2023-07-24T08:49:23;3.70;;;1.20;;
39140;SDS011;24875;48.436;10.298;2023-07-24T08:51:52;1.85;;;1.13;;
39140;SDS011;24875;48.436;10.298;2023-07-24T08:54:19;4.07;;;1.92;;
39140;SDS011;24875;48.436;10.298;2023-07-24T08:56:46;5.22;;;1.95;;
39140;SDS011;24875;48.436;10.298;2023-07-24T08:59:15;3.83;;;1.77;;
39140;SDS011;24875;48.436;10.298;2023-07-24T09:01:42;1.75;;;0.93;;
39140;SDS011;24875;48.436;10.298;2023-07-24T09:04:08;1.35;;;1.13;;
39140;SDS011;24875;48.436;10.298;2023-07-24T09:06:35;5.93;;;1.60;;
39140;SDS011;24875;48.436;10.298;2023-07-24T09:09:11;3.78;;;1.38;;
39140;SDS011;24875;48.436;10.298;2023-07-24T09:11:45;1.90;;;1.05;;
39140;SDS011;24875;48.436;10.298;2023-07-24T09:14:19;2.25;;;1.00;;
39140;SDS011;24875;48.436;10.298;2023-07-24T09:16:46;4.65;;;1.33;;
39140;SDS011;24875;48.436;10.298;2023-07-24T09:19:16;2.50;;;1.02;;
39140;SDS011;24875;48.436;10.298;2023-07-24T09:21:43;3.35;;;1.83;;
39140;SDS011;24875;48.436;10.298;2023-07-24T09:24:12;3.30;;;1.17;;
39140;SDS011;24875;48.436;10.298;2023-07-24T09:26:47;4.13;;;1.58;;
39140;SDS011;24875;48.436;10.298;2023-07-24T09:29:14;2.05;;;1.05;;
39140;SDS011;24875;48.436;10.298;2023-07-24T09:31:41;3.53;;;0.90;;
39140;SDS011;24875;48.436;10.298;2023-07-24T09:34:13;2.67;;;1.15;;
39140;SDS011;24875;48.436;10.298;2023-07-24T09:36:41;3.22;;;1.42;;
39140;SDS011;24875;48.436;10.298;2023-07-24T09:39:07;4.18;;;1.30;;
39140;SDS011;24875;48.436;10.298;2023-07-24T09:41:37;5.07;;;1.20;;
39140;SDS011;24875;48.436;10.298;2023-07-24T09:44:05;2.50;;;1.20;;
39140;SDS011;24875;48.436;10.298;2023-07-24T09:46:31;3.17;;;1.20;;
39140;SDS011;24875;48.436;10.298;2023-07-24T09:48:58;2.47;;;1.40;;
39140;SDS011;24875;48.436;10.298;2023-07-24T09:51:26;3.88;;;1.55;;
39140;SDS011;24875;48.436;10.298;2023-07-24T09:53:55;4.13;;;1.33;;
39140;SDS011;24875;48.436;10.298;2023-07-24T09:56:24;5.38;;;1.50;;
39140;SDS011;24875;48.436;10.298;2023-07-24T09:58:53;2.47;;;1.23;;
39140;SDS011;24875;48.436;10.298;2023-07-24T10:01:21;2.53;;;1.20;;
39140;SDS011;24875;48.436;10.298;2023-07-24T10:03:49;3.88;;;1.45;;
39140;SDS011;24875;48.436;10.298;2023-07-24T10:06:16;3.17;;;1.42;;
39140;SDS011;24875;48.436;10.298;2023-07-24T10:08:43;2.95;;;1.35;;
39140;SDS011;24875;48.436;10.298;2023-07-24T10:11:11;3.75;;;1.67;;
39140;SDS011;24875;48.436;10.298;2023-07-24T10:13:39;3.28;;;1.58;;
39140;SDS011;24875;48.436;10.298;2023-07-24T10:16:08;2.75;;;1.15;;
39140;SDS011;24875;48.436;10.298;2023-07-24T10:18:41;4.22;;;1.17;;
39140;SDS011;24875;48.436;10.298;2023-07-24T10:21:10;5.05;;;1.52;;
39140;SDS011;24875;48.436;10.298;2023-07-24T10:23:37;5.35;;;1.40;;
39140;SDS011;24875;48.436;10.298;2023-07-24T10:26:08;5.22;;;1.60;;
39140;SDS011;24875;48.436;10.298;2023-07-24T10:28:35;3.97;;;1.60;;
39140;SDS011;24875;48.436;10.298;2023-07-24T10:31:04;7.40;;;1.50;;
39140;SDS011;24875;48.436;10.298;2023-07-24T10:33:35;4.15;;;1.38;;
39140;SDS011;24875;48.436;10.298;2023-07-24T10:36:10;4.35;;;1.00;;
39140;SDS011;24875;48.436;10.298;2023-07-24T10:38:39;3.92;;;1.35;;
39140;SDS011;24875;48.436;10.298;2023-07-24T10:41:08;2.92;;;1.25;;
39140;SDS011;24875;48.436;10.298;2023-07-24T10:43:39;2.75;;;1.40;;
39140;SDS011;24875;48.436;10.298;2023-07-24T10:46:07;2.22;;;1.30;;
39140;SDS011;24875;48.436;10.298;2023-07-24T10:48:35;3.05;;;1.20;;
39140;SDS011;24875;48.436;10.298;2023-07-24T10:51:05;3.97;;;1.90;;
39140;SDS011;24875;48.436;10.298;2023-07-24T10:53:34;5.28;;;1.55;;
39140;SDS011;24875;48.436;10.298;2023-07-24T10:56:01;3.67;;;2.08;;
39140;SDS011;24875;48.436;10.298;2023-07-24T10:58:28;2.05;;;1.45;;
39140;SDS011;24875;48.436;10.298;2023-07-24T11:00:55;3.00;;;1.20;;
39140;SDS011;24875;48.436;10.298;2023-07-24T11:03:22;3.45;;;1.45;;
39140;SDS011;24875;48.436;10.298;2023-07-24T11:05:51;2.63;;;1.48;;
39140;SDS011;24875;48.436;10.298;2023-07-24T11:08:19;2.92;;;1.40;;
39140;SDS011;24875;48.436;10.298;2023-07-24T11:10:47;3.50;;;1.77;;
39140;SDS011;24875;48.436;10.298;2023-07-24T11:13:14;7.35;;;1.33;;
39140;SDS011;24875;48.436;10.298;2023-07-24T11:15:41;2.75;;;1.38;;
39140;SDS011;24875;48.436;10.298;2023-07-24T11:18:07;2.78;;;1.48;;
39140;SDS011;24875;48.436;10.298;2023-07-24T11:20:36;3.28;;;1.73;;
39140;SDS011;24875;48.436;10.298;2023-07-24T11:23:05;4.30;;;2.17;;
39140;SDS011;24875;48.436;10.298;2023-07-24T11:25:31;4.63;;;1.90;;
39140;SDS011;24875;48.436;10.298;2023-07-24T11:27:58;1.27;;;0.75;;
39140;SDS011;24875;48.436;10.298;2023-07-24T11:30:24;4.53;;;1.90;;
39140;SDS011;24875;48.436;10.298;2023-07-24T11:32:51;4.10;;;1.60;;
39140;SDS011;24875;48.436;10.298;2023-07-24T11:35:18;2.83;;;1.35;;
39140;SDS011;24875;48.436;10.298;2023-07-24T11:37:46;3.15;;;1.63;;
39140;SDS011;24875;48.436;10.298;2023-07-24T11:40:15;3.28;;;1.77;;
39140;SDS011;24875;48.436;10.298;2023-07-24T11:42:42;4.90;;;2.22;;
39140;SDS011;24875;48.436;10.298;2023-07-24T11:45:10;2.60;;;1.35;;
39140;SDS011;24875;48.436;10.298;2023-07-24T11:47:46;3.50;;;1.83;;
39140;SDS011;24875;48.436;10.298;2023-07-24T11:50:14;4.47;;;1.73;;
39140;SDS011;24875;48.436;10.298;2023-07-24T11:52:41;5.10;;;1.85;;
39140;SDS011;24875;48.436;10.298;2023-07-24T11:55:09;5.28;;;2.30;;
39140;SDS011;24875;48.436;10.298;2023-07-24T11:57:37;2.97;;;1.27;;
39140;SDS011;24875;48.436;10.298;2023-07-24T12:00:04;5.43;;;1.95;;
39140;SDS011;24875;48.436;10.298;2023-07-24T12:02:33;3.25;;;1.45;;
39140;SDS011;24875;48.436;10.298;2023-07-24T12:05:00;3.75;;;1.52;;
39140;SDS011;24875;48.436;10.298;2023-07-24T12:07:31;3.60;;;1.58;;
39140;SDS011;24875;48.436;10.298;2023-07-24T12:09:59;3.55;;;1.65;;
39140;SDS011;24875;48.436;10.298;2023-07-24T12:12:37;5.15;;;1.77;;
39140;SDS011;24875;48.436;10.298;2023-07-24T12:15:09;3.75;;;1.90;;
39140;SDS011;24875;48.436;10.298;2023-07-24T12:17:36;5.95;;;1.58;;
39140;SDS011;24875;48.436;10.298;2023-07-24T12:20:03;4.82;;;1.98;;
39140;SDS011;24875;48.436;10.298;2023-07-24T12:22:31;3.33;;;1.50;;
39140;SDS011;24875;48.436;10.298;2023-07-24T12:24:57;4.25;;;1.33;;
39140;SDS011;24875;48.436;10.298;2023-07-24T12:27:24;4.72;;;2.28;;
39140;SDS011;24875;48.436;10.298;2023-07-24T12:29:52;4.53;;;2.25;;
39140;SDS011;24875;48.436;10.298;2023-07-24T12:32:18;4.20;;;2.22;;
39140;SDS011;24875;48.436;10.298;2023-07-24T12:34:46;4.20;;;1.70;;
39140;SDS011;24875;48.436;10.298;2023-07-24T12:37:13;3.47;;;1.55;;
39140;SDS011;24875;48.436;10.298;2023-07-24T12:39:39;4.22;;;1.73;;
39140;SDS011;24875;48.436;10.298;2023-07-24T12:42:06;6.25;;;2.33;;
39140;SDS011;24875;48.436;10.298;2023-07-24T12:44:32;8.82;;;2.08;;
39140;SDS011;24875;48.436;10.298;2023-07-24T12:47:00;2.58;;;1.30;;
39140;SDS011;24875;48.436;10.298;2023-07-24T12:49:26;6.15;;;1.92;;
39140;SDS011;24875;48.436;10.298;2023-07-24T12:51:53;4.13;;;1.85;;
39140;SDS011;24875;48.436;10.298;2023-07-24T12:54:19;4.68;;;1.58;;
39140;SDS011;24875;48.436;10.298;2023-07-24T12:56:47;4.57;;;1.70;;
39140;SDS011;24875;48.436;10.298;2023-07-24T12:59:14;4.55;;;1.80;;
39140;SDS011;24875;48.436;10.298;2023-07-24T13:01:40;5.45;;;2.15;;
39140;SDS011;24875;48.436;10.298;2023-07-24T13:04:08;3.85;;;1.90;;
39140;SDS011;24875;48.436;10.298;2023-07-24T13:06:35;3.88;;;1.88;;
39140;SDS011;24875;48.436;10.298;2023-07-24T13:09:02;4.05;;;1.30;;
39140;SDS011;24875;48.436;10.298;2023-07-24T13:11:29;2.00;;;1.35;;
39140;SDS011;24875;48.436;10.298;2023-07-24T13:13:55;3.50;;;1.50;;
39140;SDS011;24875;48.436;10.298;2023-07-24T13:16:22;3.28;;;1.60;;
39140;SDS011;24875;48.436;10.298;2023-07-24T13:18:49;3.47;;;1.83;;
39140;SDS011;24875;48.436;10.298;2023-07-24T13:21:17;5.32;;;1.52;;
39140;SDS011;24875;48.436;10.298;2023-07-24T13:23:44;3.83;;;1.73;;
39140;SDS011;24875;48.436;10.298;2023-07-24T13:26:11;3.88;;;1.85;;
39140;SDS011;24875;48.436;10.298;2023-07-24T13:28:38;3.78;;;1.52;;
39140;SDS011;24875;48.436;10.298;2023-07-24T13:31:12;3.20;;;1.27;;
39140;SDS011;24875;48.436;10.298;2023-07-24T13:33:39;2.88;;;1.50;;
39140;SDS011;24875;48.436;10.298;2023-07-24T13:36:06;4.55;;;1.58;;
39140;SDS011;24875;48.436;10.298;2023-07-24T13:38:34;2.45;;;1.20;;
39140;SDS011;24875;48.436;10.298;2023-07-24T13:41:00;2.92;;;1.23;;
39140;SDS011;24875;48.436;10.298;2023-07-24T13:43:27;3.13;;;1.45;;
39140;SDS011;24875;48.436;10.298;2023-07-24T13:45:54;4.65;;;1.50;;
39140;SDS011;24875;48.436;10.298;2023-07-24T13:48:21;3.72;;;1.52;;
39140;SDS011;24875;48.436;10.298;2023-07-24T13:50:47;4.32;;;1.55;;
39140;SDS011;24875;48.436;10.298;2023-07-24T13:53:14;2.00;;;1.13;;
39140;SDS011;24875;48.436;10.298;2023-07-24T13:55:42;3.05;;;1.42;;
39140;SDS011;24875;48.436;10.298;2023-07-24T13:58:09;2.30;;;1.00;;
39140;SDS011;24875;48.436;10.298;2023-07-24T14:00:35;2.92;;;1.65;;
39140;SDS011;24875;48.436;10.298;2023-07-24T14:03:02;2.60;;;1.40;;
39140;SDS011;24875;48.436;10.298;2023-07-24T14:05:29;3.60;;;1.63;;
39140;SDS011;24875;48.436;10.298;2023-07-24T14:07:55;2.35;;;1.00;;
39140;SDS011;24875;48.436;10.298;2023-07-24T14:10:22;4.75;;;1.58;;
39140;SDS011;24875;48.436;10.298;2023-07-24T14:12:49;2.33;;;1.27;;
39140;SDS011;24875;48.436;10.298;2023-07-24T14:15:16;2.00;;;1.08;;
39140;SDS011;24875;48.436;10.298;2023-07-24T14:17:42;3.53;;;0.98;;
39140;SDS011;24875;48.436;10.298;2023-07-24T14:20:09;2.47;;;0.80;;
39140;SDS011;24875;48.436;10.298;2023-07-24T14:22:36;2.20;;;1.38;;
39140;SDS011;24875;48.436;10.298;2023-07-24T14:25:03;2.72;;;1.05;;
39140;SDS011;24875;48.436;10.298;2023-07-24T14:27:30;1.23;;;0.77;;
39140;SDS011;24875;48.436;10.298;2023-07-24T14:29:58;2.53;;;1.05;;
39140;SDS011;24875;48.436;10.298;2023-07-24T14:32:25;2.38;;;1.10;;